createdAt,value
2023-04-30T00:01:04.373Z,7.66
2023-04-30T00:03:31.295Z,7.62
2023-04-30T00:05:58.002Z,7.51
2023-04-30T00:08:24.775Z,7.58
2023-04-30T00:10:51.256Z,7.74
2023-04-30T00:13:17.797Z,8.12
2023-04-30T00:15:44.242Z,8.02
2023-04-30T00:18:10.745Z,7.90
2023-04-30T00:20:37.461Z,8.01
2023-04-30T00:23:04.125Z,7.61
2023-04-30T00:25:30.626Z,7.45
2023-04-30T00:27:57.069Z,7.46
2023-04-30T00:30:23.517Z,7.43
2023-04-30T00:32:50.185Z,7.42
2023-04-30T00:35:18.464Z,7.41
2023-04-30T00:37:44.987Z,7.46
2023-04-30T00:40:12.031Z,7.26
2023-04-30T00:42:38.674Z,7.47
2023-04-30T00:45:05.772Z,7.33
2023-04-30T00:47:32.541Z,7.58
2023-04-30T00:49:59.916Z,7.41
2023-04-30T00:52:27.545Z,7.23
2023-04-30T00:54:54.411Z,7.38
2023-04-30T00:57:21.507Z,7.54
2023-04-30T00:59:48.918Z,7.53
2023-04-30T01:02:15.695Z,7.36
2023-04-30T01:04:42.344Z,7.32
2023-04-30T01:07:09.297Z,7.14
2023-04-30T01:09:35.960Z,7.09
2023-04-30T01:12:09.298Z,7.45
2023-04-30T01:15:04.489Z,7.20
2023-04-30T01:17:56.533Z,7.03
2023-04-30T01:20:24.375Z,7.10
2023-04-30T01:22:57.540Z,7.07
2023-04-30T01:25:35.327Z,6.90
2023-04-30T01:28:09.726Z,6.90
2023-04-30T01:30:37.436Z,6.90
2023-04-30T01:33:04.167Z,7.04
2023-04-30T01:35:45.867Z,7.33
2023-04-30T01:38:43.456Z,7.03
2023-04-30T01:41:28.204Z,6.96
2023-04-30T01:44:19.993Z,7.26
2023-04-30T01:46:58.618Z,7.22
2023-04-30T01:49:37.682Z,7.27
2023-04-30T01:52:15.444Z,7.33
2023-04-30T01:54:51.372Z,6.88
2023-04-30T01:57:49.165Z,6.75
2023-04-30T02:00:15.753Z,6.77
2023-04-30T02:02:42.540Z,6.84
2023-04-30T02:05:09.486Z,6.84
2023-04-30T02:07:48.153Z,6.94
2023-04-30T02:10:15.314Z,6.87
2023-04-30T02:12:42.092Z,6.90
2023-04-30T02:15:09.610Z,6.53
2023-04-30T02:17:36.354Z,6.69
2023-04-30T02:20:03.459Z,6.67
2023-04-30T02:22:30.165Z,6.73
2023-04-30T02:24:56.864Z,6.64
2023-04-30T02:27:24.936Z,6.59
2023-04-30T02:29:52.460Z,6.72
2023-04-30T02:32:19.624Z,6.58
2023-04-30T02:34:46.258Z,6.43
2023-04-30T02:37:12.771Z,6.39
2023-04-30T02:39:39.413Z,6.47
2023-04-30T02:42:05.943Z,6.48
2023-04-30T02:44:33.120Z,6.47
2023-04-30T02:47:00.133Z,6.29
2023-04-30T02:49:26.951Z,6.33
2023-04-30T02:51:56.370Z,6.31
2023-04-30T02:54:22.963Z,6.39
2023-04-30T02:56:49.457Z,6.28
2023-04-30T02:59:16.048Z,6.56
2023-04-30T03:01:42.645Z,6.49
2023-04-30T03:04:09.327Z,6.71
2023-04-30T03:06:35.865Z,6.85
2023-04-30T03:09:02.569Z,6.77
2023-04-30T03:11:29.229Z,6.71
2023-04-30T03:13:55.681Z,6.59
2023-04-30T03:16:22.538Z,6.20
2023-04-30T03:18:49.439Z,6.12
2023-04-30T03:21:16.050Z,6.03
2023-04-30T03:23:42.570Z,5.99
2023-04-30T03:26:09.093Z,6.02
2023-04-30T03:28:35.731Z,6.20
2023-04-30T03:31:02.824Z,6.07
2023-04-30T03:33:29.505Z,6.04
2023-04-30T03:35:56.052Z,6.06
2023-04-30T03:38:22.589Z,5.94
2023-04-30T03:40:49.132Z,5.97
2023-04-30T03:43:15.804Z,6.01
2023-04-30T03:45:42.368Z,5.95
2023-04-30T03:48:09.272Z,5.92
2023-04-30T03:50:35.866Z,5.80
2023-04-30T03:53:02.634Z,5.85
2023-04-30T03:55:29.255Z,5.92
2023-04-30T03:57:56.057Z,5.82
2023-04-30T04:00:22.863Z,6.08
2023-04-30T04:02:49.646Z,6.06
2023-04-30T04:05:16.121Z,6.09
2023-04-30T04:07:42.519Z,5.94
2023-04-30T04:10:09.177Z,5.85
2023-04-30T04:12:35.855Z,5.69
2023-04-30T04:15:02.732Z,5.81
2023-04-30T04:17:29.193Z,5.79
2023-04-30T04:19:55.897Z,6.00
2023-04-30T04:22:22.647Z,6.05
2023-04-30T04:24:49.289Z,6.11
2023-04-30T04:27:15.773Z,5.99
2023-04-30T04:29:42.306Z,6.01
2023-04-30T04:32:08.940Z,6.19
2023-04-30T04:34:35.416Z,6.24
2023-04-30T04:37:01.949Z,6.09
2023-04-30T04:39:28.468Z,6.20
2023-04-30T04:41:55.084Z,6.19
2023-04-30T04:44:21.538Z,6.20
2023-04-30T04:46:48.249Z,6.30
2023-04-30T04:49:14.716Z,6.12
2023-04-30T04:51:41.328Z,6.13
2023-04-30T04:54:07.895Z,6.23
2023-04-30T04:56:34.388Z,6.16
2023-04-30T04:59:01.141Z,6.09
2023-04-30T05:01:27.834Z,6.12
2023-04-30T05:03:54.522Z,6.27
2023-04-30T05:06:21.383Z,6.27
2023-04-30T05:08:47.937Z,6.44
2023-04-30T05:11:15.842Z,6.40
2023-04-30T05:13:42.725Z,6.43
2023-04-30T05:16:09.394Z,6.50
2023-04-30T05:18:35.893Z,6.59
2023-04-30T05:21:02.549Z,6.65
2023-04-30T05:23:29.134Z,6.76
2023-04-30T05:25:55.684Z,6.69
2023-04-30T05:28:22.134Z,6.79
2023-04-30T05:30:48.644Z,6.92
2023-04-30T05:33:15.295Z,7.04
2023-04-30T05:35:41.779Z,7.22
2023-04-30T05:38:08.359Z,7.45
2023-04-30T05:40:35.115Z,7.38
2023-04-30T05:43:01.716Z,7.33
2023-04-30T05:45:28.214Z,7.41
2023-04-30T05:47:54.778Z,7.54
2023-04-30T05:50:21.328Z,7.71
2023-04-30T05:52:47.926Z,7.72
2023-04-30T05:55:14.595Z,7.91
2023-04-30T05:57:41.174Z,8.10
2023-04-30T06:00:08.500Z,8.15
2023-04-30T06:02:35.392Z,7.74
2023-04-30T06:05:02.429Z,8.10
2023-04-30T06:07:29.132Z,8.10
2023-04-30T06:09:56.463Z,8.60
2023-04-30T06:12:23.362Z,9.23
2023-04-30T06:14:50.121Z,9.32
2023-04-30T06:17:16.618Z,9.99
2023-04-30T06:19:43.292Z,9.56
2023-04-30T06:22:09.939Z,10.05
2023-04-30T06:24:36.413Z,9.74
2023-04-30T06:27:03.586Z,10.11
2023-04-30T06:29:30.151Z,10.41
2023-04-30T06:31:56.753Z,10.65
2023-04-30T06:34:23.293Z,10.96
2023-04-30T06:36:49.683Z,11.06
2023-04-30T06:39:16.429Z,10.70
2023-04-30T06:41:43.117Z,11.00
2023-04-30T06:44:09.884Z,11.48
2023-04-30T06:46:36.546Z,11.96
2023-04-30T06:49:03.205Z,11.12
2023-04-30T06:51:29.842Z,10.72
2023-04-30T06:53:56.337Z,11.56
2023-04-30T06:56:23.081Z,12.30
2023-04-30T06:58:49.564Z,12.95
2023-04-30T07:01:16.119Z,13.15
2023-04-30T07:03:43.089Z,12.08
2023-04-30T07:06:12.492Z,12.24
2023-04-30T07:08:39.160Z,12.58
2023-04-30T07:11:05.737Z,12.75
2023-04-30T07:13:32.197Z,13.01
2023-04-30T07:15:58.802Z,13.56
2023-04-30T07:18:25.441Z,12.91
2023-04-30T07:20:51.967Z,13.68
2023-04-30T07:23:18.370Z,13.07
2023-04-30T07:25:44.850Z,13.28
2023-04-30T07:28:11.426Z,14.47
2023-04-30T07:30:38.299Z,14.55
2023-04-30T07:33:05.053Z,13.34
2023-04-30T07:35:31.618Z,12.26
2023-04-30T07:37:58.076Z,14.39
2023-04-30T07:40:34.989Z,14.60
2023-04-30T07:43:02.689Z,15.27
2023-04-30T07:45:29.211Z,13.34
2023-04-30T07:47:55.933Z,15.18
2023-04-30T07:50:22.556Z,14.82
2023-04-30T07:52:49.728Z,15.41
2023-04-30T07:55:16.437Z,15.84
2023-04-30T07:57:42.945Z,15.97
2023-04-30T08:00:09.725Z,13.93
2023-04-30T08:02:36.428Z,15.50
2023-04-30T08:05:03.089Z,15.67
2023-04-30T08:07:29.586Z,16.35
2023-04-30T08:09:56.359Z,17.24
2023-04-30T08:12:23.640Z,17.17
2023-04-30T08:14:50.385Z,16.48
2023-04-30T08:17:16.957Z,15.20
2023-04-30T08:19:43.594Z,15.48
2023-04-30T08:22:10.207Z,16.55
2023-04-30T08:24:36.771Z,17.09
2023-04-30T08:27:03.463Z,16.70
2023-04-30T08:29:30.203Z,15.79
2023-04-30T08:32:02.596Z,16.95
2023-04-30T08:34:29.377Z,17.25
2023-04-30T08:36:55.908Z,17.77
2023-04-30T08:39:22.454Z,18.10
2023-04-30T08:41:56.042Z,18.01
2023-04-30T08:44:24.045Z,19.44
2023-04-30T08:46:56.073Z,19.18
2023-04-30T08:49:24.612Z,19.52
2023-04-30T08:51:52.495Z,19.32
2023-04-30T08:54:19.684Z,18.61
2023-04-30T08:56:46.508Z,19.48
2023-04-30T08:59:13.842Z,20.20
2023-04-30T09:01:41.486Z,19.21
2023-04-30T09:04:08.364Z,18.60
2023-04-30T09:06:35.347Z,20.86
2023-04-30T09:09:16.029Z,19.21
2023-04-30T09:11:42.982Z,17.91
2023-04-30T09:14:09.984Z,21.25
2023-04-30T09:16:51.466Z,20.75
2023-04-30T09:19:29.742Z,18.12
2023-04-30T09:21:56.897Z,19.71
2023-04-30T09:24:24.171Z,19.64
2023-04-30T09:26:51.585Z,19.23
2023-04-30T09:29:18.440Z,20.68
2023-04-30T09:31:47.394Z,21.71
2023-04-30T09:34:14.732Z,20.60
2023-04-30T09:36:54.469Z,21.72
2023-04-30T09:39:21.199Z,20.65
2023-04-30T09:41:47.968Z,21.20
2023-04-30T09:44:37.478Z,22.72
2023-04-30T09:47:04.793Z,22.60
2023-04-30T09:49:31.392Z,21.06
2023-04-30T09:52:00.056Z,21.13
2023-04-30T09:54:31.625Z,22.51
2023-04-30T09:57:00.928Z,22.07
2023-04-30T09:59:32.795Z,19.34
2023-04-30T10:02:00.670Z,20.68
2023-04-30T10:04:30.890Z,22.32
2023-04-30T10:06:59.038Z,21.87
2023-04-30T10:09:34.809Z,21.20
2023-04-30T10:12:03.274Z,21.63
2023-04-30T10:14:31.369Z,19.13
2023-04-30T10:17:03.453Z,20.93
2023-04-30T10:19:31.776Z,19.42
2023-04-30T10:21:59.809Z,19.75
2023-04-30T10:24:27.311Z,18.42
2023-04-30T10:26:55.081Z,18.66
2023-04-30T10:29:21.616Z,18.62
2023-04-30T10:31:49.940Z,19.64
2023-04-30T10:34:54.723Z,18.70
2023-04-30T10:37:47.850Z,19.23
2023-04-30T10:40:14.730Z,19.45
2023-04-30T10:42:50.755Z,18.89
2023-04-30T10:45:17.434Z,19.29
2023-04-30T10:47:44.821Z,18.80
2023-04-30T10:50:11.883Z,18.01
2023-04-30T10:52:39.196Z,19.09
2023-04-30T10:55:07.527Z,18.91
2023-04-30T10:57:41.618Z,18.82
2023-04-30T11:00:08.011Z,19.28
2023-04-30T11:02:47.056Z,19.80
2023-04-30T11:05:18.287Z,18.63
2023-04-30T11:07:51.522Z,19.24
2023-04-30T11:10:22.951Z,18.37
2023-04-30T11:12:51.707Z,19.32
2023-04-30T11:15:20.921Z,19.31
2023-04-30T11:17:51.160Z,19.43
2023-04-30T11:20:24.110Z,19.40
2023-04-30T11:23:10.024Z,18.12
2023-04-30T11:25:44.463Z,18.92
2023-04-30T11:28:17.058Z,18.36
2023-04-30T11:30:54.270Z,17.68
2023-04-30T11:33:22.232Z,18.50
2023-04-30T11:35:50.748Z,18.55
2023-04-30T11:38:18.419Z,18.89
2023-04-30T11:40:45.429Z,19.54
2023-04-30T11:43:22.500Z,18.82
2023-04-30T11:46:09.641Z,19.64
2023-04-30T11:48:40.750Z,18.47
2023-04-30T11:51:18.241Z,18.74
2023-04-30T11:53:49.963Z,18.56
2023-04-30T11:56:24.580Z,17.82
2023-04-30T11:58:54.612Z,18.46
2023-04-30T12:01:21.740Z,18.24
2023-04-30T12:03:50.909Z,19.13
2023-04-30T12:06:25.390Z,17.76
2023-04-30T12:08:56.640Z,17.99
2023-04-30T12:11:27.581Z,17.75
2023-04-30T12:13:57.901Z,17.61
2023-04-30T12:16:25.050Z,18.41
2023-04-30T12:18:52.854Z,18.62
2023-04-30T12:21:22.797Z,19.31
2023-04-30T12:23:49.636Z,18.48
2023-04-30T12:26:16.303Z,18.93
2023-04-30T12:28:42.916Z,17.59
2023-04-30T12:31:09.557Z,18.40
2023-04-30T12:33:36.147Z,19.17
2023-04-30T12:36:02.768Z,19.54
2023-04-30T12:38:29.407Z,18.31
2023-04-30T12:40:56.549Z,18.09
2023-04-30T12:43:23.258Z,17.93
2023-04-30T12:45:54.923Z,18.89
2023-04-30T12:48:23.686Z,18.61
2023-04-30T12:50:55.252Z,18.11
2023-04-30T12:53:22.410Z,18.14
2023-04-30T12:56:07.935Z,19.04
2023-04-30T12:58:34.369Z,18.26
2023-04-30T13:01:01.244Z,19.26
2023-04-30T13:03:27.915Z,19.00
2023-04-30T13:05:54.630Z,17.96
2023-04-30T13:08:21.497Z,18.11
2023-04-30T13:10:49.053Z,18.54
2023-04-30T13:13:17.017Z,18.35
2023-04-30T13:15:44.139Z,18.80
2023-04-30T13:18:10.985Z,19.68
2023-04-30T13:20:38.566Z,20.62
2023-04-30T13:23:06.348Z,19.26
2023-04-30T13:25:34.055Z,19.04
2023-04-30T13:28:01.099Z,19.02
2023-04-30T13:30:27.622Z,19.38
2023-04-30T13:32:54.465Z,19.30
2023-04-30T13:35:21.252Z,19.86
2023-04-30T13:37:48.355Z,19.97
2023-04-30T13:40:15.565Z,21.25
2023-04-30T13:42:42.613Z,21.25
2023-04-30T13:45:11.716Z,21.59
2023-04-30T13:47:38.804Z,20.26
2023-04-30T13:50:06.612Z,18.11
2023-04-30T13:52:33.062Z,17.98
2023-04-30T13:54:59.530Z,17.51
2023-04-30T13:57:26.297Z,18.36
2023-04-30T13:59:54.320Z,19.43
2023-04-30T14:02:21.303Z,18.94
2023-04-30T14:05:01.983Z,19.83
2023-04-30T14:07:32.422Z,19.57
2023-04-30T14:09:58.880Z,20.16
2023-04-30T14:12:25.451Z,20.34
2023-04-30T14:14:52.632Z,19.92
2023-04-30T14:17:19.285Z,18.91
2023-04-30T14:19:46.154Z,18.89
2023-04-30T14:22:12.848Z,18.61
2023-04-30T14:24:39.424Z,18.60
2023-04-30T14:27:05.957Z,18.24
2023-04-30T14:29:32.493Z,19.91
2023-04-30T14:31:59.162Z,20.02
2023-04-30T14:34:25.787Z,18.64
2023-04-30T14:36:52.216Z,18.11
2023-04-30T14:39:18.957Z,18.10
2023-04-30T14:41:45.804Z,18.84
2023-04-30T14:44:12.333Z,18.85
2023-04-30T14:46:38.895Z,19.29
2023-04-30T14:49:05.412Z,19.30
2023-04-30T14:51:31.942Z,18.93
2023-04-30T14:53:58.549Z,19.61
2023-04-30T14:56:25.254Z,19.58
2023-04-30T14:58:51.777Z,21.23
2023-04-30T15:01:18.394Z,20.24
2023-04-30T15:03:45.373Z,20.79
2023-04-30T15:06:12.255Z,20.50
2023-04-30T15:08:38.846Z,19.38
2023-04-30T15:11:05.249Z,19.00
2023-04-30T15:13:31.907Z,18.98
2023-04-30T15:15:58.608Z,18.75
2023-04-30T15:18:25.225Z,19.07
2023-04-30T15:20:51.724Z,19.34
2023-04-30T15:23:18.262Z,18.84
2023-04-30T15:25:45.082Z,19.22
2023-04-30T15:28:11.545Z,19.03
2023-04-30T15:30:38.108Z,19.29
2023-04-30T15:33:05.039Z,18.53
2023-04-30T15:35:31.612Z,18.90
2023-04-30T15:37:58.284Z,19.35
2023-04-30T15:40:24.737Z,19.08
2023-04-30T15:42:51.452Z,18.76
2023-04-30T15:45:18.335Z,18.70
2023-04-30T15:47:44.979Z,18.78
2023-04-30T15:50:11.600Z,17.90
2023-04-30T15:52:40.089Z,17.82
2023-04-30T15:55:07.794Z,18.04
2023-04-30T15:57:34.319Z,17.87
2023-04-30T16:00:00.858Z,17.91
2023-04-30T16:02:27.477Z,17.95
2023-04-30T16:04:53.928Z,17.89
2023-04-30T16:07:20.473Z,18.37
2023-04-30T16:09:47.525Z,18.23
2023-04-30T16:12:13.997Z,18.15
2023-04-30T16:14:40.692Z,18.07
2023-04-30T16:17:07.168Z,18.12
2023-04-30T16:19:33.813Z,17.97
2023-04-30T16:22:00.591Z,17.89
2023-04-30T16:24:27.261Z,18.13
2023-04-30T16:26:54.056Z,17.97
2023-04-30T16:29:20.870Z,17.83
2023-04-30T16:31:47.876Z,17.84
2023-04-30T16:34:14.558Z,17.39
2023-04-30T16:36:41.179Z,17.34
2023-04-30T16:39:07.722Z,17.47
2023-04-30T16:41:34.198Z,17.35
2023-04-30T16:44:00.696Z,17.82
2023-04-30T16:46:27.645Z,17.46
2023-04-30T16:48:54.635Z,17.38
2023-04-30T16:51:21.288Z,17.12
2023-04-30T16:53:48.319Z,17.31
2023-04-30T16:56:15.082Z,17.58
2023-04-30T16:58:41.771Z,17.54
2023-04-30T17:01:08.421Z,17.09
2023-04-30T17:03:35.350Z,17.13
2023-04-30T17:06:02.265Z,17.30
2023-04-30T17:08:28.906Z,17.10
2023-04-30T17:10:55.553Z,17.35
2023-04-30T17:13:22.333Z,17.30
2023-04-30T17:15:48.961Z,17.37
2023-04-30T17:18:15.711Z,17.10
2023-04-30T17:20:42.427Z,16.77
2023-04-30T17:23:09.184Z,16.77
2023-04-30T17:25:35.932Z,16.86
2023-04-30T17:28:02.425Z,16.60
2023-04-30T17:30:29.281Z,16.83
2023-04-30T17:32:56.058Z,16.97
2023-04-30T17:35:22.928Z,16.72
2023-04-30T17:37:49.683Z,16.82
2023-04-30T17:40:16.414Z,16.73
2023-04-30T17:42:42.856Z,16.43
2023-04-30T17:45:09.961Z,16.65
2023-04-30T17:47:36.612Z,16.64
2023-04-30T17:50:03.377Z,16.65
2023-04-30T17:52:29.971Z,16.72
2023-04-30T17:54:56.527Z,16.42
2023-04-30T17:57:23.251Z,16.64
2023-04-30T17:59:49.672Z,16.35
2023-04-30T18:02:16.264Z,16.65
2023-04-30T18:04:42.726Z,16.25
2023-04-30T18:07:09.426Z,16.33
2023-04-30T18:09:36.116Z,16.41
2023-04-30T18:12:02.862Z,16.29
2023-04-30T18:14:29.366Z,16.32
2023-04-30T18:16:55.873Z,16.02
2023-04-30T18:19:22.534Z,16.17
2023-04-30T18:21:49.381Z,16.02
2023-04-30T18:24:16.077Z,16.25
2023-04-30T18:26:42.554Z,16.19
2023-04-30T18:29:09.390Z,16.15
2023-04-30T18:31:36.162Z,16.38
2023-04-30T18:34:03.118Z,16.04
2023-04-30T18:36:30.348Z,15.84
2023-04-30T18:38:56.880Z,15.80
2023-04-30T18:41:23.504Z,15.89
2023-04-30T18:43:49.987Z,15.55
2023-04-30T18:46:16.825Z,15.80
2023-04-30T18:48:43.464Z,15.26
2023-04-30T18:51:09.944Z,15.27
2023-04-30T18:53:36.476Z,15.36
2023-04-30T18:56:02.921Z,15.11
2023-04-30T18:58:29.440Z,15.06
2023-04-30T19:00:58.848Z,14.92
2023-04-30T19:03:25.601Z,15.10
2023-04-30T19:05:55.661Z,14.98
2023-04-30T19:08:22.216Z,15.21
2023-04-30T19:10:49.403Z,15.53
2023-04-30T19:13:15.966Z,15.23
2023-04-30T19:15:43.382Z,15.03
2023-04-30T19:18:10.026Z,14.99
2023-04-30T19:20:36.745Z,14.43
2023-04-30T19:23:03.319Z,14.79
2023-04-30T19:25:30.302Z,14.77
2023-04-30T19:27:56.941Z,14.70
2023-04-30T19:30:23.668Z,14.53
2023-04-30T19:32:50.492Z,14.57
2023-04-30T19:35:17.468Z,14.54
2023-04-30T19:37:43.984Z,14.29
2023-04-30T19:40:10.790Z,14.19
2023-04-30T19:42:38.366Z,14.21
2023-04-30T19:45:08.280Z,14.21
2023-04-30T19:47:34.879Z,14.20
2023-04-30T19:50:01.528Z,14.02
2023-04-30T19:52:29.835Z,14.25
2023-04-30T19:54:56.908Z,14.03
2023-04-30T19:57:23.606Z,14.26
2023-04-30T19:59:50.185Z,14.26
2023-04-30T20:02:17.093Z,14.02
2023-04-30T20:04:43.663Z,13.89
2023-04-30T20:07:10.154Z,13.73
2023-04-30T20:09:36.785Z,13.68
2023-04-30T20:12:03.447Z,13.74
2023-04-30T20:14:30.890Z,13.91
2023-04-30T20:16:57.575Z,13.69
2023-04-30T20:19:24.090Z,13.49
2023-04-30T20:21:51.332Z,13.40
2023-04-30T20:24:18.618Z,13.53
2023-04-30T20:26:45.215Z,13.29
2023-04-30T20:29:11.680Z,13.35
2023-04-30T20:31:38.226Z,13.35
2023-04-30T20:34:05.021Z,13.51
2023-04-30T20:36:31.702Z,13.35
2023-04-30T20:38:59.236Z,13.58
2023-04-30T20:41:26.531Z,13.55
2023-04-30T20:43:53.096Z,13.54
2023-04-30T20:46:20.732Z,13.24
2023-04-30T20:48:47.544Z,13.11
2023-04-30T20:51:14.102Z,13.01
2023-04-30T20:53:40.606Z,12.98
2023-04-30T20:56:07.145Z,12.99
2023-04-30T20:58:33.776Z,12.92
2023-04-30T21:01:00.334Z,12.84
2023-04-30T21:03:27.066Z,13.05
2023-04-30T21:05:53.715Z,13.00
2023-04-30T21:08:20.408Z,13.03
2023-04-30T21:10:47.058Z,13.00
2023-04-30T21:13:13.531Z,12.94
2023-04-30T21:15:40.119Z,13.07
2023-04-30T21:18:06.782Z,12.98
2023-04-30T21:20:33.524Z,13.09
2023-04-30T21:23:01.459Z,12.84
2023-04-30T21:25:28.130Z,12.72
2023-04-30T21:27:55.496Z,13.00
2023-04-30T21:30:24.982Z,12.92
2023-04-30T21:32:52.293Z,12.91
2023-04-30T21:35:19.377Z,12.79
2023-04-30T21:37:45.852Z,12.77
2023-04-30T21:40:12.558Z,12.83
2023-04-30T21:42:39.017Z,12.70
2023-04-30T21:45:05.962Z,12.77
2023-04-30T21:47:32.537Z,12.79
2023-04-30T21:49:59.171Z,12.71
2023-04-30T21:52:25.930Z,12.65
2023-04-30T21:54:52.418Z,12.71
2023-04-30T21:57:19.007Z,12.75
2023-04-30T21:59:45.553Z,12.85
2023-04-30T22:02:22.790Z,12.90
2023-04-30T22:04:50.041Z,12.92
2023-04-30T22:07:16.838Z,12.85
2023-04-30T22:09:43.352Z,13.06
2023-04-30T22:12:10.007Z,13.16
2023-04-30T22:14:36.591Z,12.85
2023-04-30T22:17:03.149Z,12.90
2023-04-30T22:19:29.805Z,13.09
2023-04-30T22:21:56.584Z,12.83
2023-04-30T22:24:23.170Z,12.83
2023-04-30T22:26:50.083Z,12.73
2023-04-30T22:29:16.694Z,12.81
2023-04-30T22:31:43.231Z,12.70
2023-04-30T22:34:09.897Z,12.80
2023-04-30T22:36:36.397Z,12.89
2023-04-30T22:39:03.305Z,12.73
2023-04-30T22:41:29.777Z,12.77
2023-04-30T22:43:56.329Z,12.63
2023-04-30T22:46:22.845Z,12.81
2023-04-30T22:48:49.439Z,12.78
2023-04-30T22:51:15.993Z,12.63
2023-04-30T22:53:42.431Z,12.77
2023-04-30T22:56:09.788Z,12.76
2023-04-30T22:58:36.417Z,13.03
2023-04-30T23:01:03.016Z,12.80
2023-04-30T23:03:29.687Z,12.58
2023-04-30T23:05:59.315Z,12.88
2023-04-30T23:08:25.828Z,12.78
2023-04-30T23:10:52.279Z,12.74
2023-04-30T23:13:19.135Z,12.87
2023-04-30T23:15:45.802Z,12.86
2023-04-30T23:18:12.338Z,12.81
2023-04-30T23:20:39.977Z,12.96
2023-04-30T23:23:06.389Z,12.97
2023-04-30T23:25:32.796Z,12.74
2023-04-30T23:27:59.432Z,12.76
2023-04-30T23:30:26.005Z,12.87
2023-04-30T23:32:52.576Z,12.99
2023-04-30T23:35:19.250Z,12.78
2023-04-30T23:37:45.902Z,12.50
2023-04-30T23:40:12.485Z,12.55
2023-04-30T23:42:39.009Z,12.44
2023-04-30T23:45:06.251Z,12.45
2023-04-30T23:47:34.113Z,12.35
2023-04-30T23:50:00.732Z,12.36
2023-04-30T23:52:27.155Z,12.35
2023-04-30T23:54:53.726Z,12.51
2023-04-30T23:57:20.482Z,12.57
2023-04-30T23:59:47.114Z,12.34
